Main page
METAR-TAF:

METAR-TAF

Airports :

Tehran, Iran

Mehrabad International Airport

latitude: 35-41N, longitude: 051-21E, elevation: 1204 m

Current weather observation

The report was made 36 minutes ago, at 20:00 UTC
Wind 4 kt from the North
Temperature 28°C
Humidity 22%
Pressure 1011 hPa
Visibility 10 km or more
no clouds below 1500 m and no cumulonimbus

METAR: OIII 202000Z 36004KT CAVOK 28/04 Q1010 A2985 NOSIG

Time: 01:06 (20:36 UTC)

Forecast

The report was made 3 hours and 11 minutes ago, at 17:25 UTC
Forecast valid from 20 at 18 UTC to 21 at 24 UTC
Wind 4 kt from the Northwest
Visibility: 8000 m
Becoming
from 21 at 05 UTC to 21 at 06 UTC
Wind 10 kt from the Southeast
Becoming
from 21 at 10 UTC to 21 at 12 UTC
Wind 10 kt from the Southwest
Becoming
from 21 at 18 UTC to 21 at 19 UTC
Wind 4 kt from the Northwest

TAF: OIII 201725Z 2018/2124 32002MPS 8000 NSC BECMG 2105/2106 14005MPS BECMG 2110/2112 23005MPS BECMG 2118/2119 32002MPS

Weather observations and forecasts of more than 4000 airports (METAR and TAF reports).

The available stations are represented by yellow and red dots on the map.

Hover mouse over dot to see the name of the station.

Then click to see weather observations and forecasts.

To change the map : click on the green buttons with a black cross to zoom in, on the green button with a dash to zoom out, or on the green arrows for adjacent maps.


METAR-TAF: